createdAt,value
2023-04-14T00:00:49.300Z,98954.72
2023-04-14T00:03:52.107Z,98934.19
2023-04-14T00:06:57.110Z,98934.19
2023-04-14T00:09:59.704Z,98921.16
2023-04-14T00:13:02.202Z,98902.59
2023-04-14T00:16:05.202Z,98898.22
2023-04-14T00:19:09.069Z,98876.44
2023-04-14T00:22:11.642Z,98895.87
2023-04-14T00:25:14.070Z,98898.63
2023-04-14T00:28:16.916Z,98893.91
2023-04-14T00:31:20.619Z,98876.16
2023-04-14T00:34:23.152Z,98878.16
2023-04-14T00:37:26.626Z,98874.09
2023-04-14T00:40:30.457Z,98879.59
2023-04-14T00:43:32.821Z,98911.28
2023-04-14T00:46:36.605Z,98916.84
2023-04-14T00:49:39.124Z,98882.84
2023-04-14T00:52:44.393Z,98914.47
2023-04-14T00:55:47.078Z,98901.06
2023-04-14T00:58:52.090Z,98902.66
2023-04-14T01:01:56.010Z,98894.78
2023-04-14T01:05:01.907Z,98884.59
2023-04-14T01:08:04.916Z,98890.84
2023-04-14T01:11:29.129Z,98885.34
2023-04-14T01:14:45.099Z,98885.34
2023-04-14T01:18:35.856Z,98877.47
2023-04-14T01:21:43.569Z,98855.38
2023-04-14T01:25:17.181Z,98859.41
2023-04-14T01:28:37.790Z,98826.91
2023-04-14T01:31:47.276Z,98828.22
2023-04-14T01:35:13.235Z,98795.13
2023-04-14T01:38:27.443Z,98780.44
2023-04-14T01:41:30.962Z,98787.16
2023-04-14T01:44:35.472Z,98785.19
2023-04-14T01:47:41.994Z,98797.34
2023-04-14T01:50:47.354Z,98800.16
2023-04-14T01:53:51.909Z,98780.34
2023-04-14T01:56:57.071Z,98792.59
2023-04-14T02:00:02.494Z,98797.75
2023-04-14T02:03:06.896Z,98796.59
2023-04-14T02:06:12.658Z,98795.44
2023-04-14T02:09:15.865Z,98781.16
2023-04-14T02:12:20.654Z,98777.25
2023-04-14T02:15:26.203Z,98776.56
2023-04-14T02:18:31.640Z,98767.09
2023-04-14T02:21:35.636Z,98752.09
2023-04-14T02:24:38.032Z,98756.06
2023-04-14T02:27:49.753Z,98756.81
2023-04-14T02:30:54.501Z,98751.16
2023-04-14T02:34:00.629Z,98776.53
2023-04-14T02:37:09.500Z,98774.97
2023-04-14T02:40:23.787Z,98781.66
2023-04-14T02:43:36.871Z,98788.00
2023-04-14T02:46:42.150Z,98763.09
2023-04-14T02:49:47.879Z,98770.28
2023-04-14T02:52:52.683Z,98757.59
2023-04-14T02:55:56.280Z,98764.41
2023-04-14T02:59:02.257Z,98762.00
2023-04-14T03:02:06.390Z,98736.31
2023-04-14T03:05:10.886Z,98767.94
2023-04-14T03:08:16.071Z,98741.81
2023-04-14T03:11:21.296Z,98771.94
2023-04-14T03:14:24.086Z,98765.56
2023-04-14T03:17:28.737Z,98746.28
2023-04-14T03:20:33.440Z,98738.03
2023-04-14T03:23:38.817Z,98725.41
2023-04-14T03:26:45.698Z,98725.00
2023-04-14T03:29:53.013Z,98713.13
2023-04-14T03:32:59.051Z,98723.78
2023-04-14T03:36:02.296Z,98718.19
2023-04-14T03:39:05.937Z,98695.34
2023-04-14T03:42:13.543Z,98688.28
2023-04-14T03:45:17.115Z,98679.56
2023-04-14T03:48:21.711Z,98689.78
2023-04-14T03:51:28.358Z,98685.44
2023-04-14T03:54:33.804Z,98735.09
2023-04-14T03:57:37.633Z,98821.38
2023-04-14T04:00:41.754Z,98770.75
2023-04-14T04:03:45.900Z,98813.19
2023-04-14T04:06:57.068Z,98797.03
2023-04-14T04:10:46.417Z,98767.81
2023-04-14T04:14:02.133Z,98763.16
2023-04-14T04:17:08.596Z,98759.66
2023-04-14T04:20:15.092Z,98753.72
2023-04-14T04:23:20.428Z,98763.94
2023-04-14T04:26:25.413Z,98764.78
2023-04-14T04:29:28.725Z,98764.34
2023-04-14T04:32:33.858Z,98763.16
2023-04-14T04:35:37.570Z,98734.31
2023-04-14T04:38:40.682Z,98739.56
2023-04-14T04:41:43.550Z,98736.41
2023-04-14T04:44:46.205Z,98734.06
2023-04-14T04:47:48.982Z,98730.94
2023-04-14T04:50:51.494Z,98722.19
2023-04-14T04:53:54.400Z,98740.38
2023-04-14T04:56:58.719Z,98740.34
2023-04-14T05:00:01.324Z,98749.00
2023-04-14T05:03:04.064Z,98731.16
2023-04-14T05:06:06.920Z,98758.06
2023-04-14T05:09:09.222Z,98781.31
2023-04-14T05:12:11.962Z,98755.94
2023-04-14T05:15:14.523Z,98757.94
2023-04-14T05:18:17.315Z,98777.38
2023-04-14T05:21:19.711Z,98754.41
2023-04-14T05:24:22.300Z,98771.44
2023-04-14T05:27:24.646Z,98755.19
2023-04-14T05:30:27.622Z,98771.84
2023-04-14T05:33:30.164Z,98762.44
2023-04-14T05:36:33.149Z,98749.78
2023-04-14T05:39:35.974Z,98767.94
2023-04-14T05:42:41.363Z,98765.56
2023-04-14T05:45:43.895Z,98768.34
2023-04-14T05:48:46.541Z,98771.09
2023-04-14T05:51:48.956Z,98773.06
2023-04-14T05:54:51.523Z,98771.09
2023-04-14T05:57:54.051Z,98773.50
2023-04-14T06:00:56.649Z,98782.22
2023-04-14T06:03:59.453Z,98786.91
2023-04-14T06:07:03.086Z,98783.84
2023-04-14T06:10:06.319Z,98770.44
2023-04-14T06:13:08.824Z,98765.38
2023-04-14T06:16:11.510Z,98759.44
2023-04-14T06:19:13.839Z,98767.00
2023-04-14T06:22:19.408Z,98774.09
2023-04-14T06:25:21.686Z,98765.06
2023-04-14T06:28:25.750Z,98736.19
2023-04-14T06:31:28.104Z,98756.41
2023-04-14T06:34:32.998Z,98756.09
2023-04-14T06:37:35.608Z,98752.53
2023-04-14T06:40:38.325Z,98728.03
2023-04-14T06:43:40.770Z,98709.81
2023-04-14T06:46:43.402Z,98713.06
2023-04-14T06:49:45.785Z,98720.97
2023-04-14T06:52:48.424Z,98736.41
2023-04-14T06:55:59.615Z,98739.94
2023-04-14T06:59:02.665Z,98750.22
2023-04-14T07:02:05.090Z,98745.53
2023-04-14T07:05:08.298Z,98735.25
2023-04-14T07:08:10.621Z,98733.69
2023-04-14T07:11:13.268Z,98736.06
2023-04-14T07:14:15.820Z,98737.66
2023-04-14T07:17:19.322Z,98732.12
2023-04-14T07:20:21.797Z,98736.91
2023-04-14T07:23:24.428Z,98732.56
2023-04-14T07:26:26.809Z,98710.81
2023-04-14T07:29:29.713Z,98729.03
2023-04-14T07:32:33.002Z,98720.75
2023-04-14T07:35:35.958Z,98723.56
2023-04-14T07:38:38.673Z,98713.28
2023-04-14T07:41:41.821Z,98695.88
2023-04-14T07:44:44.178Z,98714.09
2023-04-14T07:47:47.001Z,98711.72
2023-04-14T07:50:52.444Z,98698.22
2023-04-14T07:53:56.166Z,98712.47
2023-04-14T07:56:58.589Z,98710.12
2023-04-14T08:00:01.554Z,98699.41
2023-04-14T08:03:04.130Z,98693.09
2023-04-14T08:06:07.664Z,98719.97
2023-04-14T08:09:10.308Z,98736.19
2023-04-14T08:12:12.991Z,98730.25
2023-04-14T08:15:15.596Z,98729.47
2023-04-14T08:18:18.894Z,98722.41
2023-04-14T08:21:22.132Z,98710.94
2023-04-14T08:24:24.778Z,98706.59
2023-04-14T08:27:27.170Z,98714.91
2023-04-14T08:30:30.192Z,98666.66
2023-04-14T08:33:33.948Z,98698.28
2023-04-14T08:36:36.535Z,98673.41
2023-04-14T08:39:38.851Z,98707.00
2023-04-14T08:42:41.740Z,98718.03
2023-04-14T08:45:44.546Z,98712.53
2023-04-14T08:48:52.757Z,98718.81
2023-04-14T08:52:04.115Z,98727.50
2023-04-14T08:55:08.173Z,98732.25
2023-04-14T08:58:11.290Z,98733.84
2023-04-14T09:01:14.945Z,98747.22
2023-04-14T09:04:18.713Z,98744.84
2023-04-14T09:07:23.239Z,98730.63
2023-04-14T09:10:26.458Z,98713.19
2023-04-14T09:13:30.179Z,98741.28
2023-04-14T09:16:33.361Z,98738.53
2023-04-14T09:19:36.646Z,98745.63
2023-04-14T09:22:59.284Z,98753.53
2023-04-14T09:26:09.305Z,98761.44
2023-04-14T09:29:11.714Z,98761.41
2023-04-14T09:32:15.391Z,98767.72
2023-04-14T09:35:17.837Z,98768.50
2023-04-14T09:38:39.754Z,98751.87
2023-04-14T09:41:47.825Z,98749.06
2023-04-14T09:44:58.927Z,98772.88
2023-04-14T09:48:07.936Z,98760.47
2023-04-14T09:51:10.748Z,98749.22
2023-04-14T09:54:23.578Z,98733.66
2023-04-14T09:57:29.079Z,98755.72
2023-04-14T10:00:32.941Z,98723.66
2023-04-14T10:03:38.703Z,98751.31
2023-04-14T10:06:41.285Z,98754.50
2023-04-14T10:09:48.099Z,98732.31
2023-04-14T10:12:53.148Z,98726.75
2023-04-14T10:15:55.892Z,98734.66
2023-04-14T10:18:58.663Z,98743.37
2023-04-14T10:22:02.113Z,98761.56
2023-04-14T10:25:05.270Z,98748.53
2023-04-14T10:28:08.380Z,98682.41
2023-04-14T10:35:12.375Z,98762.00
2023-04-14T10:38:14.893Z,98736.31
2023-04-14T10:41:17.589Z,98762.00
2023-04-14T10:44:23.869Z,98762.06
2023-04-14T10:47:26.642Z,98684.06
2023-04-14T10:50:32.065Z,98743.50
2023-04-14T10:53:55.694Z,98709.41
2023-04-14T10:57:12.667Z,98756.06
2023-04-14T11:00:27.734Z,98720.16
2023-04-14T11:03:44.603Z,98749.84
2023-04-14T11:06:47.620Z,98736.84
2023-04-14T11:09:50.009Z,98747.53
2023-04-14T11:13:02.061Z,98735.69
2023-04-14T11:16:05.769Z,98737.25
2023-04-14T11:19:15.441Z,98709.59
2023-04-14T11:22:37.941Z,98733.38
2023-04-14T11:25:41.253Z,98725.09
2023-04-14T11:28:45.070Z,98708.47
2023-04-14T11:31:59.218Z,98718.41
2023-04-14T11:35:10.981Z,98705.31
2023-04-14T11:38:15.088Z,98721.22
2023-04-14T11:41:17.881Z,98703.38
2023-04-14T11:44:21.246Z,98728.66
2023-04-14T11:47:23.636Z,98700.22
2023-04-14T11:50:30.223Z,98718.78
2023-04-14T11:53:33.334Z,98715.25
2023-04-14T11:56:37.267Z,98701.75
2023-04-14T11:59:42.247Z,98692.19
2023-04-14T12:02:45.940Z,98715.13
2023-04-14T12:05:49.013Z,98704.84
2023-04-14T12:08:53.050Z,98711.16
2023-04-14T12:11:55.808Z,98710.34
2023-04-14T12:14:58.334Z,98708.75
2023-04-14T12:18:02.023Z,98682.66
2023-04-14T12:21:07.342Z,98682.69
2023-04-14T12:24:12.457Z,98672.44
2023-04-14T12:27:19.388Z,98691.47
2023-04-14T12:30:22.311Z,98675.50
2023-04-14T12:33:27.894Z,98683.88
2023-04-14T12:36:48.111Z,98701.31
2023-04-14T12:39:58.700Z,98677.44
2023-04-14T12:43:01.311Z,98698.44
2023-04-14T12:46:05.710Z,98691.91
2023-04-14T12:49:37.979Z,98715.50
2023-04-14T12:52:41.041Z,98737.41
2023-04-14T12:55:44.982Z,98713.47
2023-04-14T12:58:48.627Z,98733.28
2023-04-14T13:01:51.336Z,98716.31
2023-04-14T13:04:53.652Z,98742.06
2023-04-14T13:07:56.441Z,98752.16
2023-04-14T13:11:00.244Z,98769.84
2023-04-14T13:14:02.860Z,98745.59
2023-04-14T13:17:05.357Z,98781.09
2023-04-14T13:20:08.884Z,98769.13
2023-04-14T13:23:11.490Z,98726.53
2023-04-14T13:26:14.508Z,98735.72
2023-04-14T13:29:16.874Z,98761.13
2023-04-14T13:32:23.090Z,98740.41
2023-04-14T13:35:25.888Z,98782.94
2023-04-14T13:38:28.508Z,98754.59
2023-04-14T13:41:31.132Z,98795.44
2023-04-14T13:44:35.289Z,98797.78
2023-04-14T13:47:37.658Z,98784.88
2023-04-14T13:50:40.460Z,98763.53
2023-04-14T13:53:43.090Z,98764.84
2023-04-14T13:56:45.796Z,98791.91
2023-04-14T13:59:48.102Z,98775.72
2023-04-14T14:02:51.865Z,98776.22
2023-04-14T14:05:54.622Z,98773.34
2023-04-14T14:09:05.667Z,98778.66
2023-04-14T14:12:12.151Z,98783.28
2023-04-14T14:15:14.448Z,98791.75
2023-04-14T14:18:17.662Z,98781.91
2023-04-14T14:21:20.012Z,98782.63
2023-04-14T14:24:22.847Z,98793.78
2023-04-14T14:27:25.680Z,98812.78
2023-04-14T14:30:28.545Z,98817.38
2023-04-14T14:33:30.906Z,98794.09
2023-04-14T14:36:33.572Z,98816.66
2023-04-14T14:39:35.904Z,98839.06
2023-04-14T14:42:38.499Z,98845.28
2023-04-14T14:45:41.069Z,98842.59
2023-04-14T14:48:43.719Z,98843.41
2023-04-14T14:51:48.349Z,98814.22
2023-04-14T14:54:50.894Z,98828.94
2023-04-14T14:57:53.309Z,98855.22
2023-04-14T15:00:55.873Z,98839.69
2023-04-14T15:03:58.741Z,98867.81
2023-04-14T15:07:01.554Z,98835.09
2023-04-14T15:10:05.573Z,98844.06
2023-04-14T15:13:08.343Z,98860.16
2023-04-14T15:16:11.178Z,98875.06
2023-04-14T15:19:15.699Z,98879.44
2023-04-14T15:22:18.058Z,98888.97
2023-04-14T15:25:21.052Z,98888.16
2023-04-14T15:28:24.025Z,98896.75
2023-04-14T15:31:26.901Z,98885.78
2023-04-14T15:34:29.249Z,98907.91
2023-04-14T15:37:31.964Z,98909.69
2023-04-14T15:40:34.327Z,98905.91
2023-04-14T15:43:37.022Z,98874.25
2023-04-14T15:46:39.259Z,98904.66
2023-04-14T15:49:41.832Z,98882.28
2023-04-14T15:52:46.802Z,98917.69
2023-04-14T15:55:50.218Z,98897.66
2023-04-14T15:58:52.563Z,98927.66
2023-04-14T16:01:56.213Z,98901.22
2023-04-14T16:04:59.835Z,98941.53
2023-04-14T16:08:02.232Z,98940.31
2023-04-14T16:11:05.273Z,98959.53
2023-04-14T16:14:07.705Z,98873.41
2023-04-14T16:17:13.017Z,98956.87
2023-04-14T16:20:17.555Z,98969.47
2023-04-14T16:23:20.186Z,98960.50
2023-04-14T16:26:23.815Z,98960.97
2023-04-14T16:29:27.330Z,98918.25
2023-04-14T16:32:30.604Z,98977.84
2023-04-14T16:35:34.530Z,98969.47
2023-04-14T16:38:36.933Z,98947.59
2023-04-14T16:41:39.576Z,98972.34
2023-04-14T16:44:42.111Z,98969.47
2023-04-14T16:47:44.801Z,98981.81
2023-04-14T16:50:47.418Z,98985.03
2023-04-14T16:53:50.185Z,98999.41
2023-04-14T16:56:53.182Z,98989.94
2023-04-14T16:59:55.892Z,99011.06
2023-04-14T17:03:00.252Z,99006.97
2023-04-14T17:06:03.710Z,99001.06
2023-04-14T17:09:06.210Z,99013.94
2023-04-14T17:12:08.874Z,98979.75
2023-04-14T17:15:11.852Z,99026.81
2023-04-14T17:18:14.993Z,99004.25
2023-04-14T17:21:17.471Z,99030.03
2023-04-14T17:24:20.723Z,99002.44
2023-04-14T17:27:23.126Z,99021.91
2023-04-14T17:30:27.257Z,99021.78
2023-04-14T17:33:30.102Z,99025.44
2023-04-14T17:36:33.834Z,99031.03
2023-04-14T17:39:36.290Z,99030.12
2023-04-14T17:42:39.041Z,99011.75
2023-04-14T17:45:43.884Z,99042.56
2023-04-14T17:48:46.928Z,99066.75
2023-04-14T17:51:49.318Z,99038.41
2023-04-14T17:54:52.392Z,99070.69
2023-04-14T17:57:55.340Z,99058.41
2023-04-14T18:00:58.029Z,99069.34
2023-04-14T18:04:01.431Z,99069.69
2023-04-14T18:07:04.616Z,99078.69
2023-04-14T18:10:08.614Z,99087.56
2023-04-14T18:13:11.662Z,99133.63
2023-04-14T18:16:14.309Z,99127.22
2023-04-14T18:19:16.593Z,99126.75
2023-04-14T18:22:19.742Z,99139.31
2023-04-14T18:25:22.157Z,99142.13
2023-04-14T18:28:24.733Z,99156.63
2023-04-14T18:31:27.226Z,99123.28
2023-04-14T18:34:29.888Z,99156.94
2023-04-14T18:37:32.591Z,99161.81
2023-04-14T18:40:38.288Z,99157.47
2023-04-14T18:43:40.733Z,99153.59
2023-04-14T18:46:44.029Z,99151.09
2023-04-14T18:49:46.503Z,99153.59
2023-04-14T18:52:49.703Z,99159.06
2023-04-14T18:55:52.518Z,99137.16
2023-04-14T18:58:56.221Z,99165.66
2023-04-14T19:01:58.663Z,99172.28
2023-04-14T19:05:02.470Z,99172.28
2023-04-14T19:08:05.105Z,99167.72
2023-04-14T19:11:07.948Z,99142.53
2023-04-14T19:14:10.427Z,99187.19
2023-04-14T19:17:13.355Z,99146.78
2023-04-14T19:20:15.629Z,99136.88
2023-04-14T19:23:19.417Z,99185.31
2023-04-14T19:26:21.878Z,99191.53
2023-04-14T19:29:24.753Z,99181.34
2023-04-14T19:32:27.168Z,99186.00
2023-04-14T19:35:30.973Z,99207.87
2023-04-14T19:38:33.472Z,99215.37
2023-04-14T19:41:36.108Z,99224.72
2023-04-14T19:44:38.406Z,99223.09
2023-04-14T19:47:41.613Z,99212.97
2023-04-14T19:50:50.565Z,99221.44
2023-04-14T19:53:53.262Z,99216.47
2023-04-14T19:56:55.845Z,99223.25
2023-04-14T19:59:58.447Z,99200.97
2023-04-14T20:03:00.853Z,99225.25
2023-04-14T20:06:04.362Z,99247.50
2023-04-14T20:09:06.736Z,99236.31
2023-04-14T20:12:09.704Z,99214.81
2023-04-14T20:15:12.017Z,99233.09
2023-04-14T20:18:17.246Z,99234.41
2023-04-14T20:21:19.565Z,99207.72
2023-04-14T20:24:22.323Z,99232.13
2023-04-14T20:27:24.746Z,99242.19
2023-04-14T20:30:29.401Z,99234.19
2023-04-14T20:33:31.956Z,99242.31
2023-04-14T20:36:37.806Z,99234.00
2023-04-14T20:39:40.107Z,99213.34
2023-04-14T20:42:42.737Z,99217.78
2023-04-14T20:45:45.145Z,99222.38
2023-04-14T20:48:48.694Z,99244.69
2023-04-14T20:51:51.016Z,99224.88
2023-04-14T20:54:54.405Z,99257.34
2023-04-14T20:57:56.714Z,99264.41
2023-04-14T21:00:59.414Z,99257.34
2023-04-14T21:04:01.849Z,99264.41
2023-04-14T21:07:04.794Z,99265.47
2023-04-14T21:10:10.242Z,99270.13
2023-04-14T21:15:40.240Z,99270.63
2023-04-14T21:16:36.100Z,99235.81
2023-04-14T21:19:39.297Z,99251.41
2023-04-14T21:22:41.951Z,99252.69
2023-04-14T21:25:44.508Z,99224.34
2023-04-14T21:28:46.806Z,99243.56
2023-04-14T21:31:49.425Z,99239.56
2023-04-14T21:34:52.428Z,99257.56
2023-04-14T21:37:55.096Z,99269.56
2023-04-14T21:40:57.408Z,99255.41
2023-04-14T21:44:00.045Z,99260.56
2023-04-14T21:47:02.397Z,99279.44
2023-04-14T21:50:06.002Z,99261.03
2023-04-14T21:53:08.520Z,99257.47
2023-04-14T21:56:12.926Z,99262.84
2023-04-14T21:59:16.463Z,99283.22
2023-04-14T22:02:19.137Z,99287.75
2023-04-14T22:05:21.900Z,99278.13
2023-04-14T22:08:24.222Z,99287.75
2023-04-14T22:11:28.780Z,99303.28
2023-04-14T22:14:31.339Z,99280.28
2023-04-14T22:17:37.494Z,99283.59
2023-04-14T22:20:40.073Z,99290.44
2023-04-14T22:23:43.822Z,99278.56
2023-04-14T22:26:46.138Z,99282.88
2023-04-14T22:29:49.022Z,99283.91
2023-04-14T22:32:51.622Z,99306.56
2023-04-14T22:35:54.304Z,99273.31
2023-04-14T22:38:57.038Z,99275.34
2023-04-14T22:41:59.736Z,99291.81
2023-04-14T22:45:02.060Z,99272.81
2023-04-14T22:48:06.306Z,99282.19
2023-04-14T22:51:08.619Z,99312.56
2023-04-14T22:54:11.425Z,99279.41
2023-04-14T22:57:13.771Z,99296.34
2023-04-14T23:00:17.166Z,99312.09
2023-04-14T23:03:19.591Z,99294.47
2023-04-14T23:06:23.008Z,99287.97
2023-04-14T23:09:25.434Z,99286.94
2023-04-14T23:12:28.420Z,99319.62
2023-04-14T23:15:30.792Z,99286.13
2023-04-14T23:18:33.739Z,99282.59
2023-04-14T23:21:36.218Z,99307.44
2023-04-14T23:24:38.834Z,99302.72
2023-04-14T23:27:41.115Z,99314.25
2023-04-14T23:30:44.655Z,99319.56
2023-04-14T23:33:49.506Z,99300.19
2023-04-14T23:36:52.282Z,99320.34
2023-04-14T23:39:54.593Z,99321.81
2023-04-14T23:42:58.980Z,99313.28
2023-04-14T23:46:01.997Z,99334.50
2023-04-14T23:49:23.727Z,99297.81
2023-04-14T23:52:27.154Z,99297.94
2023-04-14T23:55:29.742Z,99337.72
2023-04-14T23:58:32.516Z,99302.72
